sensor_id;sensor_type;location;lat;lon;timestamp;P1;durP1;ratioP1;P2;durP2;ratioP2
34930;SDS011;21134;49.646;8.560;2023-02-21T00:00:23;3.67;;;1.27;;
34930;SDS011;21134;49.646;8.560;2023-02-21T00:03:07;3.47;;;1.50;;
34930;SDS011;21134;49.646;8.560;2023-02-21T00:05:51;1.17;;;0.67;;
34930;SDS011;21134;49.646;8.560;2023-02-21T00:08:35;0.67;;;0.47;;
34930;SDS011;21134;49.646;8.560;2023-02-21T00:11:19;0.70;;;0.70;;
34930;SDS011;21134;49.646;8.560;2023-02-21T00:14:03;1.97;;;1.37;;
34930;SDS011;21134;49.646;8.560;2023-02-21T00:16:48;1.37;;;1.13;;
34930;SDS011;21134;49.646;8.560;2023-02-21T00:19:32;9.73;;;2.00;;
34930;SDS011;21134;49.646;8.560;2023-02-21T00:22:16;0.60;;;0.60;;
34930;SDS011;21134;49.646;8.560;2023-02-21T00:25:00;1.83;;;0.93;;
34930;SDS011;21134;49.646;8.560;2023-02-21T00:27:44;2.13;;;0.50;;
34930;SDS011;21134;49.646;8.560;2023-02-21T00:30:28;4.20;;;0.80;;
34930;SDS011;21134;49.646;8.560;2023-02-21T00:33:13;2.07;;;1.03;;
34930;SDS011;21134;49.646;8.560;2023-02-21T00:35:57;0.80;;;0.80;;
34930;SDS011;21134;49.646;8.560;2023-02-21T00:38:41;4.70;;;2.07;;
34930;SDS011;21134;49.646;8.560;2023-02-21T00:41:25;3.90;;;1.13;;
34930;SDS011;21134;49.646;8.560;2023-02-21T00:44:09;0.63;;;0.63;;
34930;SDS011;21134;49.646;8.560;2023-02-21T00:46:53;2.97;;;1.03;;
34930;SDS011;21134;49.646;8.560;2023-02-21T00:49:38;1.50;;;1.03;;
34930;SDS011;21134;49.646;8.560;2023-02-21T00:52:22;1.80;;;1.57;;
34930;SDS011;21134;49.646;8.560;2023-02-21T00:55:06;2.77;;;1.17;;
34930;SDS011;21134;49.646;8.560;2023-02-21T00:57:50;0.80;;;0.73;;
34930;SDS011;21134;49.646;8.560;2023-02-21T01:00:34;1.60;;;0.83;;
34930;SDS011;21134;49.646;8.560;2023-02-21T01:03:18;0.27;;;0.27;;
34930;SDS011;21134;49.646;8.560;2023-02-21T01:06:06;4.90;;;1.37;;
34930;SDS011;21134;49.646;8.560;2023-02-21T01:08:51;1.70;;;0.90;;
34930;SDS011;21134;49.646;8.560;2023-02-21T01:11:35;1.20;;;0.83;;
34930;SDS011;21134;49.646;8.560;2023-02-21T01:14:19;1.20;;;0.93;;
34930;SDS011;21134;49.646;8.560;2023-02-21T01:17:03;1.03;;;0.60;;
34930;SDS011;21134;49.646;8.560;2023-02-21T01:19:47;0.63;;;0.53;;
34930;SDS011;21134;49.646;8.560;2023-02-21T01:22:32;3.07;;;1.13;;
34930;SDS011;21134;49.646;8.560;2023-02-21T01:25:16;1.47;;;1.37;;
34930;SDS011;21134;49.646;8.560;2023-02-21T01:28:00;2.13;;;0.90;;
34930;SDS011;21134;49.646;8.560;2023-02-21T01:30:44;1.00;;;0.90;;
34930;SDS011;21134;49.646;8.560;2023-02-21T01:33:28;12.13;;;1.57;;
34930;SDS011;21134;49.646;8.560;2023-02-21T01:36:12;1.50;;;1.40;;
34930;SDS011;21134;49.646;8.560;2023-02-21T01:38:57;5.00;;;1.93;;
34930;SDS011;21134;49.646;8.560;2023-02-21T01:41:41;4.07;;;2.30;;
34930;SDS011;21134;49.646;8.560;2023-02-21T01:44:27;1.40;;;0.77;;
34930;SDS011;21134;49.646;8.560;2023-02-21T01:47:16;0.93;;;0.90;;
34930;SDS011;21134;49.646;8.560;2023-02-21T01:50:01;4.33;;;2.20;;
34930;SDS011;21134;49.646;8.560;2023-02-21T01:52:49;4.33;;;1.07;;
34930;SDS011;21134;49.646;8.560;2023-02-21T01:55:35;5.30;;;1.73;;
34930;SDS011;21134;49.646;8.560;2023-02-21T01:58:23;0.97;;;0.93;;
34930;SDS011;21134;49.646;8.560;2023-02-21T02:01:09;14.00;;;1.63;;
34930;SDS011;21134;49.646;8.560;2023-02-21T02:03:59;1.97;;;1.33;;
34930;SDS011;21134;49.646;8.560;2023-02-21T02:06:44;1.33;;;0.80;;
34930;SDS011;21134;49.646;8.560;2023-02-21T02:09:27;4.50;;;2.10;;
34930;SDS011;21134;49.646;8.560;2023-02-21T02:12:17;3.30;;;1.73;;
34930;SDS011;21134;49.646;8.560;2023-02-21T02:15:10;2.73;;;2.00;;
34930;SDS011;21134;49.646;8.560;2023-02-21T02:17:48;4.90;;;2.20;;
34930;SDS011;21134;49.646;8.560;2023-02-21T02:20:32;1.47;;;1.30;;
34930;SDS011;21134;49.646;8.560;2023-02-21T02:23:25;3.20;;;2.40;;
34930;SDS011;21134;49.646;8.560;2023-02-21T02:29:23;5.93;;;2.07;;
34930;SDS011;21134;49.646;8.560;2023-02-21T02:32:27;2.50;;;1.50;;
34930;SDS011;21134;49.646;8.560;2023-02-21T02:35:06;2.17;;;1.90;;
34930;SDS011;21134;49.646;8.560;2023-02-21T02:37:39;7.13;;;1.07;;
34930;SDS011;21134;49.646;8.560;2023-02-21T02:40:17;11.20;;;1.10;;
34930;SDS011;21134;49.646;8.560;2023-02-21T02:42:53;25.93;;;2.07;;
34930;SDS011;21134;49.646;8.560;2023-02-21T02:45:28;6.03;;;2.00;;
34930;SDS011;21134;49.646;8.560;2023-02-21T02:48:01;7.37;;;2.10;;
34930;SDS011;21134;49.646;8.560;2023-02-21T02:50:33;17.53;;;2.37;;
34930;SDS011;21134;49.646;8.560;2023-02-21T02:53:02;1.93;;;1.77;;
34930;SDS011;21134;49.646;8.560;2023-02-21T02:55:31;4.37;;;1.60;;
34930;SDS011;21134;49.646;8.560;2023-02-21T02:58:02;7.30;;;2.73;;
34930;SDS011;21134;49.646;8.560;2023-02-21T03:00:31;4.50;;;2.13;;
34930;SDS011;21134;49.646;8.560;2023-02-21T03:03:04;3.60;;;1.13;;
34930;SDS011;21134;49.646;8.560;2023-02-21T03:05:52;5.47;;;2.60;;
34930;SDS011;21134;49.646;8.560;2023-02-21T03:08:32;9.53;;;1.47;;
34930;SDS011;21134;49.646;8.560;2023-02-21T03:11:08;4.97;;;1.97;;
34930;SDS011;21134;49.646;8.560;2023-02-21T03:13:39;8.17;;;1.87;;
34930;SDS011;21134;49.646;8.560;2023-02-21T03:16:14;7.40;;;2.37;;
34930;SDS011;21134;49.646;8.560;2023-02-21T03:18:45;2.93;;;1.50;;
34930;SDS011;21134;49.646;8.560;2023-02-21T03:21:18;6.27;;;2.93;;
34930;SDS011;21134;49.646;8.560;2023-02-21T03:23:49;4.27;;;2.00;;
34930;SDS011;21134;49.646;8.560;2023-02-21T03:26:18;2.00;;;1.13;;
34930;SDS011;21134;49.646;8.560;2023-02-21T03:28:45;10.80;;;2.17;;
34930;SDS011;21134;49.646;8.560;2023-02-21T03:31:14;2.40;;;2.03;;
34930;SDS011;21134;49.646;8.560;2023-02-21T03:33:44;8.23;;;1.50;;
34930;SDS011;21134;49.646;8.560;2023-02-21T03:36:11;8.63;;;2.03;;
34930;SDS011;21134;49.646;8.560;2023-02-21T03:38:39;2.33;;;1.83;;
34930;SDS011;21134;49.646;8.560;2023-02-21T03:41:05;0.90;;;0.50;;
34930;SDS011;21134;49.646;8.560;2023-02-21T03:43:34;0.53;;;0.53;;
34930;SDS011;21134;49.646;8.560;2023-02-21T03:46:00;5.07;;;1.30;;
34930;SDS011;21134;49.646;8.560;2023-02-21T03:48:27;1.83;;;0.90;;
34930;SDS011;21134;49.646;8.560;2023-02-21T03:50:53;8.97;;;2.17;;
34930;SDS011;21134;49.646;8.560;2023-02-21T03:53:20;1.30;;;1.10;;
34930;SDS011;21134;49.646;8.560;2023-02-21T03:55:48;1.73;;;1.30;;
34930;SDS011;21134;49.646;8.560;2023-02-21T03:58:14;1.97;;;1.53;;
34930;SDS011;21134;49.646;8.560;2023-02-21T04:00:41;3.27;;;1.13;;
34930;SDS011;21134;49.646;8.560;2023-02-21T04:03:07;0.33;;;0.33;;
34930;SDS011;21134;49.646;8.560;2023-02-21T04:05:34;0.30;;;0.30;;
34930;SDS011;21134;49.646;8.560;2023-02-21T04:08:01;2.10;;;1.07;;
34930;SDS011;21134;49.646;8.560;2023-02-21T04:10:28;2.90;;;1.27;;
34930;SDS011;21134;49.646;8.560;2023-02-21T04:12:56;1.50;;;0.90;;
34930;SDS011;21134;49.646;8.560;2023-02-21T04:15:22;1.40;;;1.07;;
34930;SDS011;21134;49.646;8.560;2023-02-21T04:17:49;0.63;;;0.57;;
34930;SDS011;21134;49.646;8.560;2023-02-21T04:20:15;0.40;;;0.40;;
34930;SDS011;21134;49.646;8.560;2023-02-21T04:22:42;0.17;;;0.17;;
34930;SDS011;21134;49.646;8.560;2023-02-21T04:25:08;1.83;;;1.20;;
34930;SDS011;21134;49.646;8.560;2023-02-21T04:27:35;4.13;;;1.17;;
34930;SDS011;21134;49.646;8.560;2023-02-21T04:30:03;0.90;;;0.90;;
34930;SDS011;21134;49.646;8.560;2023-02-21T04:32:30;1.57;;;0.83;;
34930;SDS011;21134;49.646;8.560;2023-02-21T04:34:56;0.50;;;0.50;;
34930;SDS011;21134;49.646;8.560;2023-02-21T04:37:23;0.83;;;0.83;;
34930;SDS011;21134;49.646;8.560;2023-02-21T04:39:49;1.77;;;1.13;;
34930;SDS011;21134;49.646;8.560;2023-02-21T04:42:16;2.40;;;1.00;;
34930;SDS011;21134;49.646;8.560;2023-02-21T04:44:42;1.87;;;1.27;;
34930;SDS011;21134;49.646;8.560;2023-02-21T04:47:10;1.80;;;1.03;;
34930;SDS011;21134;49.646;8.560;2023-02-21T04:49:37;2.93;;;0.73;;
34930;SDS011;21134;49.646;8.560;2023-02-21T04:52:03;2.90;;;1.17;;
34930;SDS011;21134;49.646;8.560;2023-02-21T04:54:30;1.23;;;0.90;;
34930;SDS011;21134;49.646;8.560;2023-02-21T04:56:56;1.27;;;0.83;;
34930;SDS011;21134;49.646;8.560;2023-02-21T04:59:23;1.53;;;1.40;;
34930;SDS011;21134;49.646;8.560;2023-02-21T05:01:49;1.50;;;1.10;;
34930;SDS011;21134;49.646;8.560;2023-02-21T05:04:17;2.60;;;1.27;;
34930;SDS011;21134;49.646;8.560;2023-02-21T05:06:43;1.93;;;1.23;;
34930;SDS011;21134;49.646;8.560;2023-02-21T05:09:10;0.53;;;0.50;;
34930;SDS011;21134;49.646;8.560;2023-02-21T05:11:36;2.13;;;1.17;;
34930;SDS011;21134;49.646;8.560;2023-02-21T05:14:03;1.20;;;1.10;;
34930;SDS011;21134;49.646;8.560;2023-02-21T05:16:29;5.27;;;1.30;;
34930;SDS011;21134;49.646;8.560;2023-02-21T05:18:56;1.13;;;1.07;;
34930;SDS011;21134;49.646;8.560;2023-02-21T05:21:23;0.63;;;0.50;;
34930;SDS011;21134;49.646;8.560;2023-02-21T05:23:50;0.40;;;0.40;;
34930;SDS011;21134;49.646;8.560;2023-02-21T05:26:23;3.80;;;1.27;;
34930;SDS011;21134;49.646;8.560;2023-02-21T05:28:53;1.10;;;0.80;;
34930;SDS011;21134;49.646;8.560;2023-02-21T05:31:20;1.90;;;0.90;;
34930;SDS011;21134;49.646;8.560;2023-02-21T05:33:47;2.30;;;1.07;;
34930;SDS011;21134;49.646;8.560;2023-02-21T05:36:13;0.47;;;0.47;;
34930;SDS011;21134;49.646;8.560;2023-02-21T05:38:46;0.37;;;0.37;;
34930;SDS011;21134;49.646;8.560;2023-02-21T05:41:14;1.13;;;1.10;;
34930;SDS011;21134;49.646;8.560;2023-02-21T05:43:42;0.30;;;0.30;;
34930;SDS011;21134;49.646;8.560;2023-02-21T05:46:15;2.63;;;1.27;;
34930;SDS011;21134;49.646;8.560;2023-02-21T05:48:43;1.20;;;0.53;;
34930;SDS011;21134;49.646;8.560;2023-02-21T05:51:09;1.13;;;1.03;;
34930;SDS011;21134;49.646;8.560;2023-02-21T05:53:35;4.13;;;1.53;;
34930;SDS011;21134;49.646;8.560;2023-02-21T05:56:03;1.87;;;0.80;;
34930;SDS011;21134;49.646;8.560;2023-02-21T05:58:30;1.10;;;0.53;;
34930;SDS011;21134;49.646;8.560;2023-02-21T06:00:57;0.77;;;0.77;;
34930;SDS011;21134;49.646;8.560;2023-02-21T06:03:23;6.80;;;1.57;;
34930;SDS011;21134;49.646;8.560;2023-02-21T06:05:49;2.80;;;0.73;;
34930;SDS011;21134;49.646;8.560;2023-02-21T06:08:16;0.67;;;0.57;;
34930;SDS011;21134;49.646;8.560;2023-02-21T06:10:42;0.63;;;0.60;;
34930;SDS011;21134;49.646;8.560;2023-02-21T06:13:10;3.63;;;1.37;;
34930;SDS011;21134;49.646;8.560;2023-02-21T06:15:37;1.40;;;1.27;;
34930;SDS011;21134;49.646;8.560;2023-02-21T06:18:03;2.23;;;1.63;;
34930;SDS011;21134;49.646;8.560;2023-02-21T06:20:30;2.03;;;0.83;;
34930;SDS011;21134;49.646;8.560;2023-02-21T06:22:56;0.20;;;0.20;;
34930;SDS011;21134;49.646;8.560;2023-02-21T06:25:23;3.10;;;0.67;;
34930;SDS011;21134;49.646;8.560;2023-02-21T06:27:49;0.50;;;0.50;;
34930;SDS011;21134;49.646;8.560;2023-02-21T06:30:17;1.60;;;1.50;;
34930;SDS011;21134;49.646;8.560;2023-02-21T06:32:43;1.60;;;1.50;;
34930;SDS011;21134;49.646;8.560;2023-02-21T06:35:10;1.53;;;1.23;;
34930;SDS011;21134;49.646;8.560;2023-02-21T06:37:37;5.00;;;1.47;;
34930;SDS011;21134;49.646;8.560;2023-02-21T06:40:04;5.23;;;1.50;;
34930;SDS011;21134;49.646;8.560;2023-02-21T06:42:30;0.93;;;0.93;;
34930;SDS011;21134;49.646;8.560;2023-02-21T06:44:57;1.33;;;0.97;;
34930;SDS011;21134;49.646;8.560;2023-02-21T06:47:25;0.73;;;0.67;;
34930;SDS011;21134;49.646;8.560;2023-02-21T06:49:51;1.03;;;0.97;;
34930;SDS011;21134;49.646;8.560;2023-02-21T06:52:18;3.93;;;1.77;;
34930;SDS011;21134;49.646;8.560;2023-02-21T06:54:44;1.67;;;1.50;;
34930;SDS011;21134;49.646;8.560;2023-02-21T06:57:11;1.70;;;1.50;;
34930;SDS011;21134;49.646;8.560;2023-02-21T06:59:37;2.07;;;1.43;;
34930;SDS011;21134;49.646;8.560;2023-02-21T07:02:05;3.40;;;1.90;;
34930;SDS011;21134;49.646;8.560;2023-02-21T07:04:33;6.10;;;2.20;;
34930;SDS011;21134;49.646;8.560;2023-02-21T07:06:59;1.47;;;0.90;;
34930;SDS011;21134;49.646;8.560;2023-02-21T07:09:26;1.27;;;0.87;;
34930;SDS011;21134;49.646;8.560;2023-02-21T07:11:52;4.57;;;1.77;;
34930;SDS011;21134;49.646;8.560;2023-02-21T07:14:19;0.30;;;0.27;;
34930;SDS011;21134;49.646;8.560;2023-02-21T07:16:45;16.50;;;1.50;;
34930;SDS011;21134;49.646;8.560;2023-02-21T07:19:11;1.03;;;0.80;;
34930;SDS011;21134;49.646;8.560;2023-02-21T07:21:42;1.13;;;1.03;;
34930;SDS011;21134;49.646;8.560;2023-02-21T07:24:09;1.37;;;0.83;;
34930;SDS011;21134;49.646;8.560;2023-02-21T07:26:35;3.50;;;2.20;;
34930;SDS011;21134;49.646;8.560;2023-02-21T07:29:02;2.73;;;1.23;;
34930;SDS011;21134;49.646;8.560;2023-02-21T07:31:29;2.37;;;1.07;;
34930;SDS011;21134;49.646;8.560;2023-02-21T07:33:55;1.03;;;0.93;;
34930;SDS011;21134;49.646;8.560;2023-02-21T07:36:22;1.33;;;1.20;;
34930;SDS011;21134;49.646;8.560;2023-02-21T07:38:49;7.63;;;1.60;;
34930;SDS011;21134;49.646;8.560;2023-02-21T07:41:16;1.23;;;1.13;;
34930;SDS011;21134;49.646;8.560;2023-02-21T07:43:44;1.13;;;1.03;;
34930;SDS011;21134;49.646;8.560;2023-02-21T07:46:10;4.83;;;1.13;;
34930;SDS011;21134;49.646;8.560;2023-02-21T07:48:37;4.67;;;2.23;;
34930;SDS011;21134;49.646;8.560;2023-02-21T07:51:05;1.90;;;1.13;;
34930;SDS011;21134;49.646;8.560;2023-02-21T07:53:32;5.23;;;0.97;;
34930;SDS011;21134;49.646;8.560;2023-02-21T07:56:00;9.63;;;3.13;;
34930;SDS011;21134;49.646;8.560;2023-02-21T07:58:27;0.83;;;0.73;;
34930;SDS011;21134;49.646;8.560;2023-02-21T08:00:55;5.30;;;2.50;;
34930;SDS011;21134;49.646;8.560;2023-02-21T08:03:21;0.83;;;0.83;;
34930;SDS011;21134;49.646;8.560;2023-02-21T08:05:48;1.80;;;1.70;;
34930;SDS011;21134;49.646;8.560;2023-02-21T08:08:14;3.47;;;1.67;;
34930;SDS011;21134;49.646;8.560;2023-02-21T08:10:41;1.93;;;1.40;;
34930;SDS011;21134;49.646;8.560;2023-02-21T08:13:09;1.90;;;1.70;;
34930;SDS011;21134;49.646;8.560;2023-02-21T08:15:35;8.83;;;1.80;;
34930;SDS011;21134;49.646;8.560;2023-02-21T08:18:02;2.47;;;1.17;;
34930;SDS011;21134;49.646;8.560;2023-02-21T08:20:28;2.23;;;1.37;;
34930;SDS011;21134;49.646;8.560;2023-02-21T08:22:55;4.60;;;2.33;;
34930;SDS011;21134;49.646;8.560;2023-02-21T08:25:21;4.73;;;1.80;;
34930;SDS011;21134;49.646;8.560;2023-02-21T08:27:48;4.30;;;2.33;;
34930;SDS011;21134;49.646;8.560;2023-02-21T08:30:19;3.20;;;2.00;;
34930;SDS011;21134;49.646;8.560;2023-02-21T08:32:45;13.97;;;2.83;;
34930;SDS011;21134;49.646;8.560;2023-02-21T08:35:12;4.27;;;2.10;;
34930;SDS011;21134;49.646;8.560;2023-02-21T08:37:42;3.70;;;1.87;;
34930;SDS011;21134;49.646;8.560;2023-02-21T08:40:09;4.23;;;2.40;;
34930;SDS011;21134;49.646;8.560;2023-02-21T08:42:36;10.00;;;2.73;;
34930;SDS011;21134;49.646;8.560;2023-02-21T08:45:03;4.73;;;1.87;;
34930;SDS011;21134;49.646;8.560;2023-02-21T08:47:32;3.80;;;1.63;;
34930;SDS011;21134;49.646;8.560;2023-02-21T08:50:00;8.60;;;3.73;;
34930;SDS011;21134;49.646;8.560;2023-02-21T08:52:26;1.63;;;1.23;;
34930;SDS011;21134;49.646;8.560;2023-02-21T08:54:53;2.37;;;1.63;;
34930;SDS011;21134;49.646;8.560;2023-02-21T08:57:19;3.20;;;2.20;;
34930;SDS011;21134;49.646;8.560;2023-02-21T08:59:46;3.07;;;2.10;;
34930;SDS011;21134;49.646;8.560;2023-02-21T09:02:15;5.80;;;2.50;;
34930;SDS011;21134;49.646;8.560;2023-02-21T09:04:45;2.27;;;2.03;;
34930;SDS011;21134;49.646;8.560;2023-02-21T09:07:11;3.40;;;2.03;;
34930;SDS011;21134;49.646;8.560;2023-02-21T09:09:38;7.20;;;3.13;;
34930;SDS011;21134;49.646;8.560;2023-02-21T09:12:05;2.37;;;2.17;;
34930;SDS011;21134;49.646;8.560;2023-02-21T09:14:33;2.83;;;1.73;;
34930;SDS011;21134;49.646;8.560;2023-02-21T09:17:00;5.20;;;2.40;;
34930;SDS011;21134;49.646;8.560;2023-02-21T09:19:26;2.87;;;1.80;;
34930;SDS011;21134;49.646;8.560;2023-02-21T09:21:54;5.23;;;2.17;;
34930;SDS011;21134;49.646;8.560;2023-02-21T09:24:21;3.90;;;2.50;;
34930;SDS011;21134;49.646;8.560;2023-02-21T09:26:49;6.90;;;3.27;;
34930;SDS011;21134;49.646;8.560;2023-02-21T09:29:18;6.07;;;3.07;;
34930;SDS011;21134;49.646;8.560;2023-02-21T09:31:45;11.07;;;3.17;;
34930;SDS011;21134;49.646;8.560;2023-02-21T09:34:11;3.20;;;2.77;;
34930;SDS011;21134;49.646;8.560;2023-02-21T09:36:38;11.87;;;3.30;;
34930;SDS011;21134;49.646;8.560;2023-02-21T09:39:06;9.33;;;2.93;;
34930;SDS011;21134;49.646;8.560;2023-02-21T09:41:33;11.60;;;3.43;;
34930;SDS011;21134;49.646;8.560;2023-02-21T09:44:00;13.10;;;4.27;;
34930;SDS011;21134;49.646;8.560;2023-02-21T09:46:31;3.63;;;2.47;;
34930;SDS011;21134;49.646;8.560;2023-02-21T09:49:01;8.37;;;3.50;;
34930;SDS011;21134;49.646;8.560;2023-02-21T09:51:30;7.07;;;3.90;;
34930;SDS011;21134;49.646;8.560;2023-02-21T09:53:58;7.07;;;3.43;;
34930;SDS011;21134;49.646;8.560;2023-02-21T09:56:28;5.30;;;2.73;;
34930;SDS011;21134;49.646;8.560;2023-02-21T09:58:58;12.97;;;4.07;;
34930;SDS011;21134;49.646;8.560;2023-02-21T10:01:28;18.43;;;4.30;;
34930;SDS011;21134;49.646;8.560;2023-02-21T10:04:09;8.07;;;3.80;;
34930;SDS011;21134;49.646;8.560;2023-02-21T10:06:43;4.87;;;2.30;;
34930;SDS011;21134;49.646;8.560;2023-02-21T10:09:19;7.77;;;3.73;;
34930;SDS011;21134;49.646;8.560;2023-02-21T10:11:56;6.20;;;2.43;;
34930;SDS011;21134;49.646;8.560;2023-02-21T10:14:35;4.07;;;2.23;;
34930;SDS011;21134;49.646;8.560;2023-02-21T10:17:11;11.77;;;3.67;;
34930;SDS011;21134;49.646;8.560;2023-02-21T10:19:45;7.63;;;4.20;;
34930;SDS011;21134;49.646;8.560;2023-02-21T10:22:17;4.77;;;3.00;;
34930;SDS011;21134;49.646;8.560;2023-02-21T10:24:46;15.83;;;3.90;;
34930;SDS011;21134;49.646;8.560;2023-02-21T10:27:15;6.03;;;2.70;;
34930;SDS011;21134;49.646;8.560;2023-02-21T10:29:45;4.47;;;2.97;;
34930;SDS011;21134;49.646;8.560;2023-02-21T10:32:15;14.90;;;3.73;;
34930;SDS011;21134;49.646;8.560;2023-02-21T10:34:42;6.17;;;3.07;;
34930;SDS011;21134;49.646;8.560;2023-02-21T10:37:16;13.20;;;3.63;;
34930;SDS011;21134;49.646;8.560;2023-02-21T10:39:54;8.57;;;3.20;;
34930;SDS011;21134;49.646;8.560;2023-02-21T10:42:29;7.80;;;3.40;;
34930;SDS011;21134;49.646;8.560;2023-02-21T10:45:00;5.47;;;3.23;;
34930;SDS011;21134;49.646;8.560;2023-02-21T10:47:31;8.53;;;3.17;;
34930;SDS011;21134;49.646;8.560;2023-02-21T10:50:08;3.10;;;2.27;;
34930;SDS011;21134;49.646;8.560;2023-02-21T10:52:37;13.30;;;4.27;;
34930;SDS011;21134;49.646;8.560;2023-02-21T10:55:18;5.90;;;2.77;;
34930;SDS011;21134;49.646;8.560;2023-02-21T10:57:49;5.70;;;3.13;;
34930;SDS011;21134;49.646;8.560;2023-02-21T11:00:21;10.73;;;3.40;;
34930;SDS011;21134;49.646;8.560;2023-02-21T11:02:50;3.50;;;2.50;;
34930;SDS011;21134;49.646;8.560;2023-02-21T11:05:22;5.70;;;3.37;;
34930;SDS011;21134;49.646;8.560;2023-02-21T11:07:56;7.50;;;3.93;;
34930;SDS011;21134;49.646;8.560;2023-02-21T11:10:28;6.43;;;3.90;;
34930;SDS011;21134;49.646;8.560;2023-02-21T11:13:05;8.77;;;4.70;;
34930;SDS011;21134;49.646;8.560;2023-02-21T11:15:38;7.83;;;2.93;;
34930;SDS011;21134;49.646;8.560;2023-02-21T11:18:05;7.57;;;3.27;;
34930;SDS011;21134;49.646;8.560;2023-02-21T11:20:38;8.73;;;3.87;;
34930;SDS011;21134;49.646;8.560;2023-02-21T11:23:15;9.73;;;3.27;;
34930;SDS011;21134;49.646;8.560;2023-02-21T11:25:44;8.07;;;4.20;;
34930;SDS011;21134;49.646;8.560;2023-02-21T11:28:18;6.67;;;3.23;;
34930;SDS011;21134;49.646;8.560;2023-02-21T11:30:48;6.67;;;3.27;;
34930;SDS011;21134;49.646;8.560;2023-02-21T11:33:17;5.77;;;3.40;;
34930;SDS011;21134;49.646;8.560;2023-02-21T11:35:46;8.73;;;2.70;;
34930;SDS011;21134;49.646;8.560;2023-02-21T11:38:31;4.87;;;2.50;;
34930;SDS011;21134;49.646;8.560;2023-02-21T11:41:00;9.77;;;3.07;;
34930;SDS011;21134;49.646;8.560;2023-02-21T11:43:29;13.83;;;3.57;;
34930;SDS011;21134;49.646;8.560;2023-02-21T11:45:59;7.97;;;4.10;;
34930;SDS011;21134;49.646;8.560;2023-02-21T11:48:31;32.50;;;4.03;;
34930;SDS011;21134;49.646;8.560;2023-02-21T11:51:03;5.83;;;3.10;;
34930;SDS011;21134;49.646;8.560;2023-02-21T11:53:35;4.20;;;2.40;;
34930;SDS011;21134;49.646;8.560;2023-02-21T11:56:07;5.47;;;2.87;;
34930;SDS011;21134;49.646;8.560;2023-02-21T11:58:46;3.40;;;2.70;;
34930;SDS011;21134;49.646;8.560;2023-02-21T12:01:22;4.70;;;2.27;;
34930;SDS011;21134;49.646;8.560;2023-02-21T12:03:58;6.90;;;3.60;;
34930;SDS011;21134;49.646;8.560;2023-02-21T12:06:34;4.40;;;2.60;;
34930;SDS011;21134;49.646;8.560;2023-02-21T12:09:08;4.07;;;2.73;;
34930;SDS011;21134;49.646;8.560;2023-02-21T12:11:44;5.67;;;2.70;;
34930;SDS011;21134;49.646;8.560;2023-02-21T12:14:33;6.33;;;3.00;;
34930;SDS011;21134;49.646;8.560;2023-02-21T12:17:15;8.13;;;3.27;;
34930;SDS011;21134;49.646;8.560;2023-02-21T12:20:02;8.80;;;3.77;;
34930;SDS011;21134;49.646;8.560;2023-02-21T12:22:49;8.60;;;2.87;;
34930;SDS011;21134;49.646;8.560;2023-02-21T12:25:40;3.80;;;2.23;;
34930;SDS011;21134;49.646;8.560;2023-02-21T12:28:18;4.80;;;2.60;;
34930;SDS011;21134;49.646;8.560;2023-02-21T12:31:01;5.83;;;2.50;;
34930;SDS011;21134;49.646;8.560;2023-02-21T12:33:40;2.87;;;2.00;;
34930;SDS011;21134;49.646;8.560;2023-02-21T12:36:25;6.47;;;2.87;;
34930;SDS011;21134;49.646;8.560;2023-02-21T12:39:02;5.80;;;2.80;;
34930;SDS011;21134;49.646;8.560;2023-02-21T12:41:54;2.60;;;2.07;;
34930;SDS011;21134;49.646;8.560;2023-02-21T12:44:42;4.93;;;2.23;;
34930;SDS011;21134;49.646;8.560;2023-02-21T12:47:22;5.20;;;3.00;;
34930;SDS011;21134;49.646;8.560;2023-02-21T12:49:53;8.27;;;2.93;;
34930;SDS011;21134;49.646;8.560;2023-02-21T12:52:26;5.47;;;2.30;;
34930;SDS011;21134;49.646;8.560;2023-02-21T12:54:58;3.83;;;2.20;;
34930;SDS011;21134;49.646;8.560;2023-02-21T12:57:30;3.90;;;2.17;;
34930;SDS011;21134;49.646;8.560;2023-02-21T13:00:15;3.77;;;2.60;;
34930;SDS011;21134;49.646;8.560;2023-02-21T13:02:51;3.03;;;2.50;;
34930;SDS011;21134;49.646;8.560;2023-02-21T13:05:25;4.37;;;2.23;;
34930;SDS011;21134;49.646;8.560;2023-02-21T13:07:58;4.83;;;2.40;;
34930;SDS011;21134;49.646;8.560;2023-02-21T13:10:27;4.13;;;2.77;;
34930;SDS011;21134;49.646;8.560;2023-02-21T13:12:59;4.13;;;2.17;;
34930;SDS011;21134;49.646;8.560;2023-02-21T13:15:32;4.13;;;2.70;;
34930;SDS011;21134;49.646;8.560;2023-02-21T13:18:04;4.90;;;2.40;;
34930;SDS011;21134;49.646;8.560;2023-02-21T13:20:34;5.63;;;3.07;;
34930;SDS011;21134;49.646;8.560;2023-02-21T13:26:15;4.90;;;2.37;;
34930;SDS011;21134;49.646;8.560;2023-02-21T13:28:54;5.43;;;2.50;;
34930;SDS011;21134;49.646;8.560;2023-02-21T13:31:23;3.65;;;2.35;;
34930;SDS011;21134;49.646;8.560;2023-02-21T13:33:54;5.27;;;2.50;;
34930;SDS011;21134;49.646;8.560;2023-02-21T13:36:22;6.80;;;2.97;;
34930;SDS011;21134;49.646;8.560;2023-02-21T13:38:56;5.40;;;2.65;;
34930;SDS011;21134;49.646;8.560;2023-02-21T13:41:25;7.20;;;3.50;;
34930;SDS011;21134;49.646;8.560;2023-02-21T13:43:53;11.13;;;3.50;;
34930;SDS011;21134;49.646;8.560;2023-02-21T13:46:22;10.50;;;2.77;;
34930;SDS011;21134;49.646;8.560;2023-02-21T13:52:15;3.97;;;2.47;;
34930;SDS011;21134;49.646;8.560;2023-02-21T13:55:08;5.90;;;3.15;;
34930;SDS011;21134;49.646;8.560;2023-02-21T13:57:46;7.03;;;3.53;;
34930;SDS011;21134;49.646;8.560;2023-02-21T14:08:49;4.85;;;2.75;;
34930;SDS011;21134;49.646;8.560;2023-02-21T14:11:23;6.22;;;2.42;;
34930;SDS011;21134;49.646;8.560;2023-02-21T14:13:54;4.45;;;2.72;;
34930;SDS011;21134;49.646;8.560;2023-02-21T14:16:23;7.93;;;3.70;;
34930;SDS011;21134;49.646;8.560;2023-02-21T14:18:54;6.80;;;3.53;;
34930;SDS011;21134;49.646;8.560;2023-02-21T14:21:25;6.25;;;3.47;;
34930;SDS011;21134;49.646;8.560;2023-02-21T14:23:57;5.65;;;3.13;;
34930;SDS011;21134;49.646;8.560;2023-02-21T14:26:41;4.68;;;3.40;;
34930;SDS011;21134;49.646;8.560;2023-02-21T14:29:26;6.60;;;3.38;;
34930;SDS011;21134;49.646;8.560;2023-02-21T14:31:56;11.73;;;2.67;;
34930;SDS011;21134;49.646;8.560;2023-02-21T14:34:41;5.53;;;2.75;;
34930;SDS011;21134;49.646;8.560;2023-02-21T14:37:21;9.73;;;3.78;;
34930;SDS011;21134;49.646;8.560;2023-02-21T14:39:51;4.60;;;2.38;;
34930;SDS011;21134;49.646;8.560;2023-02-21T14:42:25;6.65;;;3.17;;
34930;SDS011;21134;49.646;8.560;2023-02-21T14:48:17;6.90;;;2.60;;
34930;SDS011;21134;49.646;8.560;2023-02-21T14:51:05;13.18;;;2.67;;
34930;SDS011;21134;49.646;8.560;2023-02-21T14:53:51;7.97;;;2.55;;
34930;SDS011;21134;49.646;8.560;2023-02-21T14:56:39;5.75;;;2.85;;
34930;SDS011;21134;49.646;8.560;2023-02-21T14:59:35;6.82;;;2.30;;
34930;SDS011;21134;49.646;8.560;2023-02-21T15:02:18;5.25;;;2.67;;
34930;SDS011;21134;49.646;8.560;2023-02-21T15:04:54;5.40;;;2.47;;
34930;SDS011;21134;49.646;8.560;2023-02-21T15:07:30;4.53;;;2.65;;
34930;SDS011;21134;49.646;8.560;2023-02-21T15:10:11;6.38;;;2.03;;
34930;SDS011;21134;49.646;8.560;2023-02-21T15:12:41;3.58;;;2.00;;
34930;SDS011;21134;49.646;8.560;2023-02-21T15:15:17;4.32;;;1.85;;
34930;SDS011;21134;49.646;8.560;2023-02-21T15:17:53;4.32;;;1.83;;
34930;SDS011;21134;49.646;8.560;2023-02-21T15:20:24;4.03;;;1.65;;
34930;SDS011;21134;49.646;8.560;2023-02-21T15:22:54;2.75;;;2.05;;
34930;SDS011;21134;49.646;8.560;2023-02-21T15:25:23;3.55;;;2.30;;
34930;SDS011;21134;49.646;8.560;2023-02-21T15:27:57;3.00;;;1.85;;
34930;SDS011;21134;49.646;8.560;2023-02-21T15:30:30;2.40;;;1.83;;
34930;SDS011;21134;49.646;8.560;2023-02-21T15:33:07;2.20;;;1.60;;
34930;SDS011;21134;49.646;8.560;2023-02-21T15:35:41;2.53;;;1.45;;
34930;SDS011;21134;49.646;8.560;2023-02-21T15:38:14;3.58;;;2.38;;
34930;SDS011;21134;49.646;8.560;2023-02-21T15:40:45;3.42;;;2.10;;